KEWN/EWN METAR and TAF weather

Enter ICAO airport designator
Station Type Date Time Source
KEWN METAR 2019/12/08 13:54 UTC NOAA

KEWN 081354Z 01007KT 350V050 10SM CLR 05/02 A3042 RMK AO2 SLP301 T00500022


Station Type Date Time Source
KEWN Decoded METAR 2019/12/08 13:54 UTC NOAA

New Bern, Craven County Regional Airport, NC, United States (KEWN) 35-04-03N 077-02-50W 3M
Dec 08, 2019 - 08:54 AM EST / 2019.12.08 1354 UTC
Wind: from the N (010 degrees) at 8 MPH (7 KT) (direction variable):0
Visibility: 10 mile(s):0
Sky conditions: clear
Temperature: 41.0 F (5.0 C)
Dew Point: 36.0 F (2.2 C)
Relative Humidity: 82%
Pressure (altimeter): 30.42 in. Hg (1030 hPa)
ob: KEWN 081354Z 01007KT 350V050 10SM CLR 05/02 A3042 RMK AO2 SLP301 T00500022
cycle: 14

Station Type Date Time Source
KEWN TAF 2019/12/08 12:30 UTC NOAA

TAF KEWN 081128Z 0812/0912 03006KT P6SM SKC
FM081500 07007KT P6SM SCT040
FM082200 08006KT P6SM BKN025
FM090200 10006KT 5SM -SHRA SCT007 OVC020
FM090800 16005KT 5SM -SHRA OVC007

Example: see airport list